Time;durP1;ratioP1;P1;durP2;ratioP2;P2;SDS_P1;SDS_P2;PMS_P1;PMS_P2;Temp;Humidity;BMP_temperature;BMP_pressure;BME280_temperature;BME280_humidity;BME280_pressure;Samples;Min_cycle;Max_cycle;Signal;HPM_P1;HPM_P2
2022/07/16 00:02:25;;;;;;;10.32;3.13;;;14.10;99.90;;;;;;5054404;28;20052;-27
2022/07/16 00:04:51;;;;;;;6.93;3.42;;;14.10;99.90;;;;;;5056447;28;20036;-27
2022/07/16 00:07:17;;;;;;;7.18;3.67;;;14.20;99.90;;;;;;5071774;28;20041;-27
2022/07/16 00:09:42;;;;;;;6.97;3.83;;;14.30;99.90;;;;;;5054422;28;20102;-27
2022/07/16 00:12:08;;;;;;;6.97;3.30;;;14.40;99.90;;;;;;5053726;28;20405;-27
2022/07/16 00:14:34;;;;;;;8.35;3.08;;;14.60;99.90;;;;;;5052044;28;20036;-27
2022/07/16 00:16:59;;;;;;;5.03;2.97;;;14.70;99.90;;;;;;5055767;28;20441;-27
2022/07/16 00:19:25;;;;;;;6.88;2.28;;;14.80;99.90;;;;;;5071940;28;20056;-26
2022/07/16 00:21:56;;;;;;;6.03;2.95;;;14.80;94.30;;;;;;5055020;28;20130;-26
2022/07/16 00:24:23;;;;;;;7.50;3.92;;;14.90;64.40;;;;;;5054490;28;20175;-26
2022/07/16 00:26:48;;;;;;;8.75;3.97;;;14.90;91.80;;;;;;5054784;28;20056;-21
2022/07/16 00:29:15;;;;;;;6.75;4.63;;;14.90;99.90;;;;;;5068680;28;20048;-21
2022/07/16 00:31:42;;;;;;;9.88;5.45;;;14.80;99.90;;;;;;5038041;28;20080;-20
2022/07/16 00:34:08;;;;;;;14.90;6.10;;;14.70;99.90;;;;;;5054855;28;20044;-19
2022/07/16 00:36:36;;;;;;;10.63;6.30;;;14.60;99.90;;;;;;5060766;28;20044;-20
2022/07/16 00:39:03;;;;;;;16.70;9.07;;;14.50;99.90;;;;;;5053575;28;20131;-22
2022/07/16 00:41:29;;;;;;;12.45;8.60;;;14.50;99.90;;;;;;5054253;28;20136;-22
2022/07/16 00:44:07;;;;;;;17.40;9.00;;;14.40;99.90;;;;;;5052483;28;20194;-21
2022/07/16 00:46:34;;;;;;;15.07;7.85;;;14.40;99.90;;;;;;5068664;28;20040;-22
2022/07/16 00:49:00;;;;;;;10.40;6.75;;;14.40;99.90;;;;;;5053121;28;20544;-21
2022/07/16 00:51:27;;;;;;;9.38;5.88;;;14.30;99.90;;;;;;5072188;28;20110;-22
2022/07/16 00:53:54;;;;;;;9.70;5.85;;;14.40;99.90;;;;;;5072857;28;20154;-22
2022/07/16 00:56:21;;;;;;;12.45;5.50;;;14.30;1.00;;;;;;5056067;28;20053;-22
2022/07/16 00:58:47;;;;;;;9.85;4.63;;;14.30;1.00;;;;;;5042282;28;20052;-21
2022/07/16 01:01:14;;;;;;;13.60;4.03;;;14.30;95.30;;;;;;5053314;28;20045;-21
2022/07/16 01:03:42;;;;;;;7.35;2.90;;;14.30;99.90;;;;;;5053125;28;20051;-21
2022/07/16 01:06:10;;;;;;;6.72;3.33;;;14.30;99.90;;;;;;5052277;28;20041;-22
2022/07/16 01:08:40;;;;;;;10.95;3.78;;;14.30;99.90;;;;;;5060287;28;20049;-22
2022/07/16 01:11:08;;;;;;;8.05;3.05;;;14.30;90.00;;;;;;5053485;28;20391;-21
2022/07/16 01:13:39;;;;;;;8.32;3.70;;;14.30;1.00;;;;;;5054112;28;20395;-22
2022/07/16 01:16:05;;;;;;;16.73;3.25;;;14.30;1.00;;;;;;5066367;28;20044;-22
2022/07/16 01:18:31;;;;;;;12.40;2.90;;;14.30;1.00;;;;;;5053826;28;20043;-22
2022/07/16 01:20:57;;;;;;;16.00;3.45;;;14.30;1.00;;;;;;5053607;28;20053;-22
2022/07/16 01:23:24;;;;;;;7.88;2.90;;;14.30;1.00;;;;;;5053499;28;20052;-21
2022/07/16 01:25:51;;;;;;;12.05;3.80;;;14.40;11.50;;;;;;5053511;28;20041;-21
2022/07/16 01:28:17;;;;;;;9.65;3.35;;;14.30;99.90;;;;;;5053511;28;20057;-22
2022/07/16 01:30:44;;;;;;;13.15;3.97;;;14.40;99.90;;;;;;5052991;28;20044;-22
2022/07/16 01:33:23;;;;;;;9.27;4.88;;;14.30;99.90;;;;;;5068738;28;20056;-22
2022/07/16 01:35:55;;;;;;;7.93;3.30;;;14.40;99.90;;;;;;5053118;28;20123;-22
2022/07/16 01:38:21;;;;;;;9.48;3.35;;;14.40;99.90;;;;;;5052471;28;20045;-22
2022/07/16 01:40:46;;;;;;;12.45;2.58;;;14.40;99.90;;;;;;5052872;28;20067;-22
2022/07/16 01:43:27;;;;;;;5.57;2.88;;;14.40;99.90;;;;;;5053410;28;20487;-22
2022/07/16 01:45:54;;;;;;;6.35;2.28;;;14.40;99.90;;;;;;5053116;28;20430;-22
2022/07/16 01:48:20;;;;;;;5.47;2.45;;;14.50;99.90;;;;;;5070325;28;20102;-22
2022/07/16 01:50:47;;;;;;;8.50;2.22;;;14.50;99.90;;;;;;5059556;28;20033;-22
2022/07/16 01:53:13;;;;;;;11.52;3.85;;;14.40;1.00;;;;;;5051752;28;20044;-23
2022/07/16 01:55:39;;;;;;;6.18;2.08;;;14.40;1.00;;;;;;5052265;28;20633;-23
2022/07/16 01:58:07;;;;;;;6.05;2.05;;;14.40;99.90;;;;;;5053527;28;20498;-22
2022/07/16 02:00:34;;;;;;;9.07;2.30;;;14.30;99.90;;;;;;5051725;28;20107;-22
2022/07/16 02:02:59;;;;;;;5.63;2.70;;;14.20;99.90;;;;;;5052475;28;20076;-22
2022/07/16 02:05:25;;;;;;;9.07;2.20;;;14.20;99.90;;;;;;5050699;28;20084;-22
2022/07/16 02:07:51;;;;;;;6.75;2.30;;;14.10;99.90;;;;;;5052091;28;20044;-25
2022/07/16 02:10:17;;;;;;;8.82;2.50;;;14.10;99.90;;;;;;5057423;28;20372;-23
2022/07/16 02:12:43;;;;;;;8.73;2.50;;;14.00;95.80;;;;;;5052572;28;20394;-22
2022/07/16 02:15:10;;;;;;;9.52;2.65;;;13.90;49.30;;;;;;5059852;28;20045;-23
2022/07/16 02:17:36;;;;;;;11.55;2.80;;;13.90;4.10;;;;;;5061085;28;20115;-23
2022/07/16 02:20:03;;;;;;;8.30;2.42;;;13.80;1.00;;;;;;5051274;28;20049;-23
2022/07/16 02:22:29;;;;;;;6.05;2.30;;;13.70;1.00;;;;;;5052605;28;20080;-23
2022/07/16 02:24:55;;;;;;;6.60;2.35;;;13.60;1.00;;;;;;5054476;28;20153;-23
2022/07/16 02:27:21;;;;;;;6.10;2.00;;;13.60;1.00;;;;;;5056701;28;20049;-23
2022/07/16 02:29:47;;;;;;;8.05;2.10;;;13.50;1.00;;;;;;5056204;28;20180;-23
2022/07/16 02:32:13;;;;;;;7.03;2.28;;;13.50;1.00;;;;;;5057182;28;20410;-23
2022/07/16 02:34:38;;;;;;;5.32;2.15;;;13.40;1.00;;;;;;5034727;28;20118;-23
2022/07/16 02:37:04;;;;;;;6.20;2.30;;;13.30;1.00;;;;;;5053802;28;20052;-23
2022/07/16 02:39:31;;;;;;;8.65;3.65;;;13.20;1.00;;;;;;5060605;28;20045;-23
2022/07/16 02:41:56;;;;;;;10.65;3.15;;;13.10;1.00;;;;;;5060290;28;20070;-23
2022/07/16 02:44:22;;;;;;;8.95;2.90;;;13.10;1.00;;;;;;5055818;28;20491;-23
2022/07/16 02:46:48;;;;;;;7.72;2.70;;;13.00;1.00;;;;;;5055742;28;20483;-22
2022/07/16 02:49:13;;;;;;;8.18;2.20;;;12.90;96.50;;;;;;5062793;28;20049;-23
2022/07/16 02:51:39;;;;;;;11.45;3.50;;;12.70;42.10;;;;;;5041985;28;20483;-23
2022/07/16 02:54:05;;;;;;;10.70;2.50;;;12.60;6.30;;;;;;5056246;28;20045;-23
2022/07/16 02:56:31;;;;;;;6.40;2.38;;;12.50;43.00;;;;;;5054606;28;20528;-22
2022/07/16 02:58:57;;;;;;;9.00;3.03;;;12.40;99.90;;;;;;5055094;28;20053;-24
2022/07/16 03:01:23;;;;;;;10.45;2.90;;;12.40;99.90;;;;;;5056429;28;20055;-23
2022/07/16 03:03:48;;;;;;;7.68;3.40;;;12.40;99.90;;;;;;5054539;28;20483;-23
2022/07/16 03:06:15;;;;;;;9.45;3.60;;;12.30;1.00;;;;;;5054960;28;20041;-23
2022/07/16 03:08:40;;;;;;;11.73;3.58;;;12.20;1.00;;;;;;5058107;28;20048;-23
2022/07/16 03:11:06;;;;;;;8.88;3.22;;;12.10;1.00;;;;;;5054943;28;20411;-23
2022/07/16 03:13:32;;;;;;;10.18;3.33;;;12.00;99.90;;;;;;5055438;28;20368;-23
2022/07/16 03:15:58;;;;;;;9.77;2.97;;;11.80;99.90;;;;;;5054622;28;20056;-23
2022/07/16 03:18:23;;;;;;;9.88;3.53;;;11.60;99.90;;;;;;5055789;28;20041;-23
2022/07/16 03:20:49;;;;;;;12.25;3.83;;;11.50;99.90;;;;;;5054912;28;20053;-24
2022/07/16 03:23:15;;;;;;;5.78;2.67;;;11.40;75.40;;;;;;5038156;28;20136;-22
2022/07/16 03:25:41;;;;;;;8.15;2.90;;;11.40;30.20;;;;;;5055705;28;20080;-23
2022/07/16 03:28:08;;;;;;;9.02;4.20;;;11.30;91.30;;;;;;5055108;28;20479;-23
2022/07/16 03:30:35;;;;;;;8.38;3.70;;;11.30;99.90;;;;;;5057013;28;20059;-23
2022/07/16 03:33:00;;;;;;;9.65;3.90;;;11.30;99.90;;;;;;5054541;28;20041;-23
2022/07/16 03:35:26;;;;;;;10.93;3.92;;;11.30;99.90;;;;;;5054441;28;20041;-23
2022/07/16 03:40:36;;;;;;;8.73;4.85;;;11.60;99.90;;;;;;5064197;28;20517;-23
2022/07/16 03:43:03;;;;;;;15.57;4.63;;;11.90;13.20;;;;;;5057797;28;20044;-23
2022/07/16 03:45:29;;;;;;;13.93;4.65;;;12.10;99.90;;;;;;5056957;28;20087;-23
2022/07/16 03:47:54;;;;;;;10.02;4.25;;;12.20;99.90;;;;;;5057211;28;20485;-24
2022/07/16 03:50:20;;;;;;;9.88;4.28;;;12.30;99.90;;;;;;5057563;28;20136;-23
2022/07/16 03:52:46;;;;;;;6.13;3.58;;;12.50;99.90;;;;;;5056028;28;20056;-23
2022/07/16 03:55:13;;;;;;;7.97;3.35;;;12.50;99.90;;;;;;5055387;28;20044;-22
2022/07/16 03:57:39;;;;;;;7.40;3.17;;;12.50;99.90;;;;;;5055874;28;20049;-23
2022/07/16 04:00:06;;;;;;;7.63;3.25;;;12.50;1.00;;;;;;5060580;28;20040;-23
2022/07/16 04:02:32;;;;;;;10.48;3.17;;;12.40;1.00;;;;;;5074903;28;20410;-23
2022/07/16 04:04:57;;;;;;;8.05;2.78;;;12.40;1.00;;;;;;5062321;28;20056;-23
2022/07/16 04:07:23;;;;;;;8.55;2.45;;;12.50;1.00;;;;;;5069250;28;20047;-23
2022/07/16 04:09:49;;;;;;;14.98;2.55;;;12.60;1.00;;;;;;5058913;28;20045;-23
2022/07/16 04:12:14;;;;;;;10.77;3.05;;;12.70;1.00;;;;;;5054805;28;20053;-23
2022/07/16 04:14:40;;;;;;;10.63;2.58;;;12.90;99.90;;;;;;5053282;28;20041;-23
2022/07/16 04:17:06;;;;;;;10.88;2.10;;;12.80;99.90;;;;;;5054575;28;20044;-23
2022/07/16 04:19:32;;;;;;;7.75;2.10;;;12.90;99.90;;;;;;5054557;28;20055;-23
2022/07/16 04:21:57;;;;;;;9.15;1.67;;;12.90;99.90;;;;;;5053532;28;20103;-23
2022/07/16 04:24:23;;;;;;;12.57;1.98;;;13.10;38.40;;;;;;5037185;28;20049;-23
2022/07/16 04:26:49;;;;;;;8.15;2.15;;;13.10;1.00;;;;;;5053338;28;20044;-23
2022/07/16 04:29:14;;;;;;;6.47;1.48;;;13.20;1.00;;;;;;5053971;28;20401;-25
2022/07/16 04:31:40;;;;;;;7.90;1.88;;;13.30;1.00;;;;;;5055154;28;20057;-23
2022/07/16 04:34:06;;;;;;;5.30;1.17;;;13.50;1.00;;;;;;5054193;28;20049;-23
2022/07/16 04:36:32;;;;;;;10.35;1.90;;;13.60;99.90;;;;;;5053115;28;20102;-24
2022/07/16 04:38:57;;;;;;;9.35;1.65;;;13.70;99.90;;;;;;5054265;28;20454;-23
2022/07/16 04:41:23;;;;;;;7.18;1.42;;;13.80;99.90;;;;;;5053485;28;20132;-24
2022/07/16 04:43:49;;;;;;;5.40;1.40;;;13.80;64.10;;;;;;5053685;28;20037;-23
2022/07/16 04:46:14;;;;;;;6.85;1.25;;;13.90;1.00;;;;;;5053249;28;20037;-23
2022/07/16 04:48:40;;;;;;;8.80;1.33;;;13.90;1.00;;;;;;5052544;28;20051;-24
2022/07/16 04:51:06;;;;;;;9.43;1.42;;;14.00;1.00;;;;;;5055714;28;20093;-24
2022/07/16 04:53:35;;;;;;;9.10;1.60;;;14.00;1.00;;;;;;5063274;28;20044;-23
2022/07/16 04:56:01;;;;;;;11.32;1.25;;;14.10;99.90;;;;;;5072693;28;20467;-23
2022/07/16 04:58:26;;;;;;;5.38;1.60;;;14.10;99.90;;;;;;5074228;28;20047;-23
2022/07/16 05:00:52;;;;;;;8.93;1.05;;;14.10;99.90;;;;;;5057861;28;20529;-23
2022/07/16 05:03:18;;;;;;;7.45;1.25;;;14.00;99.90;;;;;;5053684;28;20048;-24
2022/07/16 05:05:43;;;;;;;7.88;1.92;;;14.00;99.90;;;;;;5052770;28;20174;-24
2022/07/16 05:08:10;;;;;;;11.40;1.50;;;14.00;99.90;;;;;;5056492;28;20055;-24
2022/07/16 05:10:36;;;;;;;9.57;1.98;;;13.90;50.00;;;;;;5052017;28;20055;-24
2022/07/16 05:13:02;;;;;;;8.75;1.33;;;13.90;96.30;;;;;;5053100;28;20471;-24
2022/07/16 05:15:29;;;;;;;8.55;1.20;;;13.80;13.20;;;;;;5063351;28;20075;-24
2022/07/16 05:17:55;;;;;;;9.07;1.20;;;13.80;1.00;;;;;;5062281;28;20558;-24
2022/07/16 05:20:21;;;;;;;10.73;1.40;;;13.80;1.00;;;;;;5053668;28;20053;-24
2022/07/16 05:22:47;;;;;;;5.80;1.10;;;14.10;1.00;;;;;;5053255;28;20054;-24
2022/07/16 05:25:14;;;;;;;4.15;0.70;;;14.80;99.90;;;;;;5053228;28;20382;-24
2022/07/16 05:27:40;;;;;;;7.72;1.17;;;15.30;90.70;;;;;;5053101;28;20040;-24
2022/07/16 05:30:06;;;;;;;4.10;0.85;;;15.70;1.00;;;;;;5054280;28;20053;-24
2022/07/16 05:32:32;;;;;;;6.25;1.10;;;15.90;99.90;;;;;;5053578;28;20049;-24
2022/07/16 05:34:58;;;;;;;6.28;0.95;;;16.10;99.90;;;;;;5052956;28;20041;-24
2022/07/16 05:37:24;;;;;;;5.85;0.93;;;16.40;99.90;;;;;;5053489;28;20195;-24
2022/07/16 05:39:49;;;;;;;8.55;1.00;;;16.50;99.90;;;;;;5053424;28;20041;-25
2022/07/16 05:42:15;;;;;;;5.72;0.90;;;16.60;99.90;;;;;;5053377;28;20041;-24
2022/07/16 05:44:41;;;;;;;13.02;1.15;;;16.70;93.30;;;;;;5052598;28;20041;-24
2022/07/16 05:47:06;;;;;;;4.50;0.82;;;16.80;49.40;;;;;;5068707;28;20127;-24
2022/07/16 05:49:32;;;;;;;6.35;0.82;;;16.80;99.90;;;;;;5073414;28;20044;-24
2022/07/16 05:51:58;;;;;;;10.45;1.45;;;16.90;1.00;;;;;;5057841;28;20124;-24
2022/07/16 05:54:24;;;;;;;5.38;1.30;;;17.10;1.00;;;;;;5052196;28;20056;-24
2022/07/16 05:56:49;;;;;;;7.32;1.05;;;17.20;1.00;;;;;;5053212;28;20040;-24
2022/07/16 05:59:15;;;;;;;7.82;1.50;;;17.30;99.90;;;;;;5054342;28;20425;-24
2022/07/16 06:01:41;;;;;;;8.55;1.25;;;17.60;99.90;;;;;;5057666;28;20124;-24
2022/07/16 06:04:07;;;;;;;6.93;0.93;;;17.60;99.90;;;;;;5057741;28;20107;-24
2022/07/16 06:06:33;;;;;;;8.50;1.55;;;17.00;99.90;;;;;;5073862;28;20041;-24
2022/07/16 06:08:59;;;;;;;7.43;1.17;;;17.10;99.90;;;;;;5075634;28;20044;-24
2022/07/16 06:11:26;;;;;;;7.85;1.60;;;17.30;99.90;;;;;;5060202;28;20107;-24
2022/07/16 06:13:51;;;;;;;7.65;1.42;;;17.70;99.90;;;;;;5057337;28;20462;-24
2022/07/16 06:16:19;;;;;;;4.45;0.90;;;17.80;99.90;;;;;;5054802;28;20124;-24
2022/07/16 06:18:45;;;;;;;5.25;0.90;;;18.10;97.30;;;;;;5056047;28;20549;-24
2022/07/16 06:21:10;;;;;;;8.10;0.93;;;18.30;1.00;;;;;;5057322;28;20048;-24
2022/07/16 06:23:36;;;;;;;7.80;1.17;;;18.40;96.40;;;;;;5057363;28;20051;-24
2022/07/16 06:26:02;;;;;;;6.68;0.60;;;18.40;1.00;;;;;;5056314;28;20106;-24
2022/07/16 06:28:28;;;;;;;5.75;0.77;;;18.20;99.90;;;;;;5056250;28;20115;-24
2022/07/16 06:30:54;;;;;;;4.35;0.77;;;18.10;99.90;;;;;;5057015;28;20094;-25
2022/07/16 06:33:20;;;;;;;4.72;0.70;;;17.80;1.00;;;;;;5056053;28;20456;-24
2022/07/16 06:35:45;;;;;;;5.53;0.60;;;17.40;1.00;;;;;;5055915;28;20475;-24
2022/07/16 06:38:12;;;;;;;5.97;0.60;;;17.60;99.90;;;;;;5056621;28;20478;-24
2022/07/16 06:40:44;;;;;;;11.20;1.05;;;18.10;99.90;;;;;;5054723;28;20049;-24
2022/07/16 06:43:10;;;;;;;7.80;0.80;;;18.30;99.90;;;;;;5056431;28;20045;-25
2022/07/16 06:45:36;;;;;;;5.18;0.75;;;18.50;1.00;;;;;;5056751;28;20048;-24
2022/07/16 06:48:02;;;;;;;10.05;1.70;;;18.70;1.00;;;;;;5055419;28;20041;-25
2022/07/16 06:50:28;;;;;;;7.75;1.00;;;18.70;1.00;;;;;;5055161;28;20123;-25
2022/07/16 06:52:54;;;;;;;4.85;1.02;;;18.80;1.00;;;;;;5056295;28;20075;-24
2022/07/16 06:55:19;;;;;;;3.22;0.55;;;19.00;1.00;;;;;;5060717;28;20064;-25
2022/07/16 06:57:45;;;;;;;6.10;0.88;;;19.00;1.00;;;;;;5056221;28;20044;-25
2022/07/16 07:00:11;;;;;;;2.88;0.60;;;18.90;99.90;;;;;;5054393;28;20461;-25
2022/07/16 07:02:37;;;;;;;7.00;0.80;;;17.60;1.00;;;;;;5055215;28;20537;-25
2022/07/16 07:05:04;;;;;;;6.28;0.82;;;16.30;99.90;;;;;;5055643;28;20049;-26
2022/07/16 07:07:29;;;;;;;9.77;1.10;;;15.60;1.00;;;;;;5055415;28;20048;-25
2022/07/16 07:09:55;;;;;;;5.65;1.27;;;15.60;99.90;;;;;;5059355;28;20052;-25
2022/07/16 07:12:21;;;;;;;3.13;0.80;;;16.40;93.50;;;;;;5054629;28;20125;-25
2022/07/16 07:14:47;;;;;;;5.60;0.80;;;17.20;1.00;;;;;;5054853;28;20509;-25
2022/07/16 07:17:12;;;;;;;19.83;1.65;;;17.70;99.90;;;;;;5054000;28;20501;-25
2022/07/16 07:19:38;;;;;;;3.78;1.10;;;18.40;99.90;;;;;;5056101;28;20053;-26
2022/07/16 07:22:04;;;;;;;5.85;0.93;;;18.60;1.00;;;;;;5060767;28;20128;-26
2022/07/16 07:24:29;;;;;;;4.75;0.80;;;18.70;1.00;;;;;;5057380;28;20084;-26
2022/07/16 07:26:55;;;;;;;4.63;0.75;;;19.10;1.00;;;;;;5054784;28;20041;-26
2022/07/16 07:29:21;;;;;;;5.68;0.90;;;19.30;99.90;;;;;;5055628;28;20045;-25
2022/07/16 07:31:46;;;;;;;6.60;1.17;;;19.30;99.90;;;;;;5054871;28;20052;-26
2022/07/16 07:34:12;;;;;;;14.90;1.02;;;19.50;99.90;;;;;;5056072;28;20084;-26
2022/07/16 07:36:38;;;;;;;6.95;1.08;;;18.80;99.90;;;;;;5055663;28;20037;-26
2022/07/16 07:39:03;;;;;;;8.30;0.80;;;17.60;99.90;;;;;;5063493;28;20045;-26
2022/07/16 07:41:29;;;;;;;4.10;0.52;;;16.70;1.00;;;;;;5074421;28;20359;-26
2022/07/16 07:43:55;;;;;;;9.32;0.95;;;16.60;99.90;;;;;;5074454;28;20051;-26
2022/07/16 07:46:20;;;;;;;6.30;0.63;;;17.20;1.00;;;;;;5074934;28;20040;-26
2022/07/16 07:48:47;;;;;;;7.03;1.20;;;17.80;1.00;;;;;;5075247;28;20055;-26
2022/07/16 07:51:12;;;;;;;3.40;0.63;;;18.40;99.90;;;;;;5075228;28;20048;-26
2022/07/16 07:53:38;;;;;;;6.25;0.70;;;18.50;99.90;;;;;;5075146;28;20539;-26
2022/07/16 07:56:04;;;;;;;6.38;0.80;;;18.90;99.90;;;;;;5075004;28;20044;-26
2022/07/16 07:58:30;;;;;;;6.45;0.98;;;18.90;99.90;;;;;;5075525;28;20076;-26
2022/07/16 08:00:57;;;;;;;4.40;1.00;;;18.50;99.90;;;;;;5074443;28;20086;-26
2022/07/16 08:03:23;;;;;;;4.05;0.60;;;18.10;99.90;;;;;;5074936;28;20048;-26
2022/07/16 08:05:49;;;;;;;5.95;0.85;;;17.50;99.90;;;;;;5075148;28;20044;-27
2022/07/16 08:08:15;;;;;;;5.88;0.90;;;17.10;99.90;;;;;;5074860;28;20398;-26
2022/07/16 08:10:41;;;;;;;3.15;0.55;;;16.80;1.00;;;;;;5074823;28;20101;-26
2022/07/16 08:13:07;;;;;;;12.13;2.25;;;16.70;99.90;;;;;;5074779;28;20052;-26
2022/07/16 08:15:33;;;;;;;6.65;0.90;;;16.80;99.90;;;;;;5067025;28;20045;-26
2022/07/16 08:17:59;;;;;;;5.38;0.93;;;17.10;99.90;;;;;;5055026;28;20049;-26
2022/07/16 08:20:24;;;;;;;7.05;1.08;;;18.20;99.90;;;;;;5054472;28;20398;-26
2022/07/16 08:22:53;;;;;;;7.03;0.98;;;19.30;99.90;;;;;;5054157;28;20049;-26
2022/07/16 08:28:02;;;;;;;13.57;1.40;;;20.60;99.90;;;;;;5055487;28;20502;-26
2022/07/16 08:30:28;;;;;;;4.32;1.05;;;20.50;99.90;;;;;;5052508;28;20037;-26
2022/07/16 08:32:54;;;;;;;4.18;1.10;;;20.30;63.10;;;;;;5053541;28;20044;-26
2022/07/16 08:35:20;;;;;;;8.27;1.30;;;20.40;99.90;;;;;;5054075;28;20052;-26
2022/07/16 08:37:47;;;;;;;10.45;1.33;;;20.80;1.00;;;;;;5052899;28;20047;-27
2022/07/16 08:40:21;;;;;;;7.20;0.82;;;21.10;99.90;;;;;;5057339;28;20044;-27
2022/07/16 08:42:48;;;;;;;4.20;0.70;;;20.40;99.90;;;;;;5054199;28;20052;-26
2022/07/16 08:45:16;;;;;;;4.05;0.77;;;19.60;1.00;;;;;;5054151;28;20107;-26
2022/07/16 08:47:42;;;;;;;6.90;0.98;;;19.70;1.00;;;;;;5054102;28;20056;-27
2022/07/16 08:50:11;;;;;;;6.07;0.70;;;19.20;99.90;;;;;;5054892;28;20045;-26
2022/07/16 08:52:39;;;;;;;10.68;1.25;;;18.10;1.00;;;;;;5053998;28;20059;-26
2022/07/16 08:55:07;;;;;;;6.72;0.65;;;17.30;1.00;;;;;;5054458;28;20128;-26
2022/07/16 08:57:35;;;;;;;6.47;0.90;;;17.40;99.90;;;;;;5053002;28;20502;-26
2022/07/16 09:00:00;;;;;;;5.18;1.48;;;18.30;99.90;;;;;;5053920;28;20119;-27
2022/07/16 09:02:27;;;;;;;3.70;0.63;;;19.30;11.50;;;;;;5054032;28;20440;-26
2022/07/16 09:04:52;;;;;;;2.47;0.57;;;19.70;99.90;;;;;;5057237;28;20056;-27
2022/07/16 09:07:18;;;;;;;5.25;0.93;;;19.90;1.00;;;;;;5066254;28;20394;-26
2022/07/16 09:09:45;;;;;;;4.15;0.77;;;20.20;99.90;;;;;;5058051;28;20508;-26
2022/07/16 09:12:30;;;;;;;4.03;0.75;;;20.20;99.90;;;;;;5053787;28;20063;-27
2022/07/16 09:14:56;;;;;;;5.75;1.00;;;20.60;99.90;;;;;;5054326;28;20044;-27
2022/07/16 09:17:21;;;;;;;4.50;0.70;;;21.00;1.00;;;;;;5054169;28;20067;-27
2022/07/16 09:19:47;;;;;;;7.15;1.13;;;21.60;99.90;;;;;;5035274;28;20063;-28
2022/07/16 09:22:15;;;;;;;3.30;0.88;;;21.80;1.00;;;;;;5036442;28;20118;-27
2022/07/16 09:24:41;;;;;;;8.38;1.25;;;20.50;1.00;;;;;;5053005;28;20127;-27
2022/07/16 09:27:39;;;;;;;5.68;0.90;;;20.60;1.00;;;;;;5052637;28;20095;-26
2022/07/16 09:30:05;;;;;;;5.65;0.60;;;20.20;1.00;;;;;;5052518;28;20057;-26
2022/07/16 09:32:34;;;;;;;4.15;0.80;;;19.10;1.00;;;;;;5052567;28;20108;-27
2022/07/16 09:35:11;;;;;;;4.57;0.80;;;18.40;99.90;;;;;;5057653;28;20056;-27
2022/07/16 09:37:55;;;;;;;3.22;0.50;;;18.20;1.00;;;;;;5060196;28;20053;-27
2022/07/16 09:40:36;;;;;;;5.05;0.80;;;18.20;1.00;;;;;;5062592;28;20140;-26
2022/07/16 09:43:22;;;;;;;7.88;1.17;;;19.40;1.00;;;;;;5079196;28;20612;-27
2022/07/16 09:46:02;;;;;;;5.68;1.00;;;19.90;99.90;;;;;;5079534;28;20060;-27
2022/07/16 09:48:29;;;;;;;7.63;0.73;;;19.80;99.90;;;;;;5069137;28;20087;-27
2022/07/16 09:50:58;;;;;;;7.90;1.08;;;19.80;99.90;;;;;;5060562;28;20045;-27
2022/07/16 09:53:26;;;;;;;8.05;1.83;;;19.40;99.90;;;;;;5061993;28;20049;-27
2022/07/16 09:56:00;;;;;;;4.50;0.73;;;18.60;1.00;;;;;;5060877;28;20123;-27
2022/07/16 09:58:26;;;;;;;4.72;0.85;;;18.80;1.00;;;;;;5060024;28;20052;-27
2022/07/16 10:00:52;;;;;;;6.97;0.90;;;19.40;99.90;;;;;;5059028;28;20057;-27
2022/07/16 10:03:20;;;;;;;7.93;0.90;;;19.60;1.00;;;;;;5065715;28;20098;-27
2022/07/16 10:05:45;;;;;;;4.43;0.90;;;19.50;99.90;;;;;;5070882;28;20120;-27
2022/07/16 10:08:11;;;;;;;6.20;1.88;;;19.30;99.90;;;;;;5078233;28;20127;-27
2022/07/16 10:10:37;;;;;;;7.50;1.90;;;19.50;99.90;;;;;;5073404;28;20156;-27
2022/07/16 10:13:03;;;;;;;4.65;1.00;;;20.00;99.90;;;;;;5065773;28;20041;-26
2022/07/16 10:15:29;;;;;;;5.50;1.02;;;20.40;99.90;;;;;;5059664;28;20051;-27
2022/07/16 10:17:54;;;;;;;4.53;0.60;;;20.70;99.90;;;;;;5067061;28;20040;-31
2022/07/16 10:20:20;;;;;;;4.85;0.82;;;20.90;99.90;;;;;;5060007;28;20140;-27
2022/07/16 10:22:50;;;;;;;3.72;0.60;;;20.60;99.90;;;;;;5059645;28;20052;-27
2022/07/16 10:25:24;;;;;;;4.18;0.98;;;20.60;99.90;;;;;;5059340;28;20049;-27
2022/07/16 10:27:52;;;;;;;4.35;1.00;;;20.10;99.90;;;;;;5060167;28;20048;-27
2022/07/16 10:30:22;;;;;;;4.07;0.70;;;19.40;99.90;;;;;;5042084;28;20136;-27
2022/07/16 10:32:59;;;;;;;4.93;0.98;;;19.40;99.90;;;;;;5068334;28;20097;-27
2022/07/16 10:35:37;;;;;;;7.72;0.95;;;19.80;99.90;;;;;;5061527;28;20110;-27
2022/07/16 10:38:08;;;;;;;8.15;0.85;;;20.00;99.90;;;;;;5066438;28;20044;-27
2022/07/16 10:40:38;;;;;;;3.97;0.60;;;20.00;99.90;;;;;;5048461;28;20055;-27
2022/07/16 10:43:16;;;;;;;5.70;0.95;;;20.00;99.90;;;;;;5072716;28;20106;-27
2022/07/16 10:45:57;;;;;;;6.13;1.20;;;20.10;99.90;;;;;;5061208;28;20454;-27
2022/07/16 10:48:29;;;;;;;7.90;1.75;;;20.80;99.90;;;;;;5039919;28;20048;-27
2022/07/16 10:51:15;;;;;;;5.13;0.90;;;20.10;99.90;;;;;;5059815;28;20106;-27
2022/07/16 10:54:01;;;;;;;6.15;1.25;;;19.80;99.90;;;;;;5056319;28;20399;-27
2022/07/16 10:56:46;;;;;;;8.10;1.33;;;20.80;99.90;;;;;;5057689;28;20049;-27
2022/07/16 10:59:14;;;;;;;5.20;0.73;;;21.30;99.90;;;;;;5057797;28;20072;-27
2022/07/16 11:01:43;;;;;;;6.38;1.10;;;21.80;99.90;;;;;;5059619;28;20036;-27
2022/07/16 11:04:10;;;;;;;5.95;1.00;;;22.20;1.00;;;;;;5062128;28;20050;-28
2022/07/16 11:06:37;;;;;;;8.32;1.15;;;22.60;82.00;;;;;;5058939;28;20076;-27
2022/07/16 11:09:06;;;;;;;3.80;0.80;;;22.10;72.30;;;;;;5040422;28;20123;-27
2022/07/16 11:11:36;;;;;;;5.63;0.88;;;21.60;99.90;;;;;;5060774;28;20587;-27
2022/07/16 11:14:02;;;;;;;6.72;1.23;;;20.60;99.90;;;;;;5055917;28;20052;-27
2022/07/16 11:16:29;;;;;;;17.17;1.63;;;20.40;99.90;;;;;;5057836;28;20033;-27
2022/07/16 11:18:58;;;;;;;7.68;1.10;;;20.90;1.00;;;;;;5056508;28;20162;-27
2022/07/16 11:21:23;;;;;;;7.65;1.40;;;21.30;99.90;;;;;;5056475;28;20087;-27
2022/07/16 11:23:55;;;;;;;7.93;1.33;;;21.10;99.90;;;;;;5058606;28;20459;-27
2022/07/16 11:26:21;;;;;;;10.55;2.28;;;20.90;99.90;;;;;;5055568;28;20049;-27
2022/07/16 11:29:01;;;;;;;7.75;1.20;;;20.50;99.90;;;;;;5056218;28;20060;-27
2022/07/16 11:31:35;;;;;;;5.20;0.80;;;20.20;99.90;;;;;;5055653;28;20124;-27
2022/07/16 11:34:04;;;;;;;7.72;1.05;;;20.30;99.90;;;;;;5056138;28;20394;-27
2022/07/16 11:36:35;;;;;;;7.75;1.10;;;20.80;1.00;;;;;;5054445;28;20044;-28
2022/07/16 11:39:29;;;;;;;8.73;1.77;;;21.50;99.90;;;;;;5037844;28;20052;-27
2022/07/16 11:41:57;;;;;;;5.50;1.20;;;21.90;99.90;;;;;;5053596;28;20061;-27
2022/07/16 11:44:24;;;;;;;5.55;1.27;;;21.90;99.90;;;;;;5053971;28;20056;-27
2022/07/16 11:46:52;;;;;;;4.30;0.90;;;21.70;99.90;;;;;;5055235;28;20041;-28
2022/07/16 11:49:26;;;;;;;5.63;1.30;;;22.10;99.90;;;;;;5055239;28;20123;-27
2022/07/16 11:51:54;;;;;;;7.32;1.73;;;22.30;1.00;;;;;;5057747;28;20056;-27
2022/07/16 11:54:20;;;;;;;8.15;2.33;;;23.00;1.00;;;;;;5067144;28;20040;-27
2022/07/16 11:56:47;;;;;;;12.02;1.83;;;22.10;1.00;;;;;;5066180;28;20114;-27
2022/07/16 11:59:20;;;;;;;8.57;1.70;;;21.60;99.90;;;;;;5055047;28;20080;-27
2022/07/16 12:01:46;;;;;;;6.93;1.88;;;22.20;99.90;;;;;;5055525;28;20084;-27
2022/07/16 12:04:12;;;;;;;8.55;1.55;;;21.80;99.90;;;;;;5054874;28;20045;-27
2022/07/16 12:06:45;;;;;;;9.95;1.13;;;21.30;99.90;;;;;;5055134;28;20033;-27
2022/07/16 12:09:11;;;;;;;6.70;1.00;;;20.80;99.90;;;;;;5054966;28;20049;-27
2022/07/16 12:11:37;;;;;;;5.75;0.90;;;21.10;99.90;;;;;;5054832;28;20079;-27
2022/07/16 12:14:03;;;;;;;5.80;1.10;;;21.90;99.90;;;;;;5054679;28;20509;-27
2022/07/16 12:16:30;;;;;;;6.40;0.93;;;22.20;99.90;;;;;;5055174;28;20049;-27
2022/07/16 12:19:14;;;;;;;4.45;1.13;;;22.50;1.00;;;;;;5053762;28;20041;-27
2022/07/16 12:21:40;;;;;;;3.38;0.75;;;22.60;1.00;;;;;;5057366;28;20055;-27
2022/07/16 12:24:09;;;;;;;6.47;1.23;;;22.30;1.00;;;;;;5056578;28;20052;-28
2022/07/16 12:26:40;;;;;;;4.78;1.17;;;22.00;1.00;;;;;;5055194;28;20669;-27
2022/07/16 12:29:08;;;;;;;6.40;1.35;;;21.20;1.00;;;;;;5055059;28;20053;-27
2022/07/16 12:31:36;;;;;;;6.35;1.10;;;21.10;99.90;;;;;;5053392;28;20072;-27
2022/07/16 12:34:04;;;;;;;7.93;1.00;;;21.10;99.90;;;;;;5053971;28;20045;-27
2022/07/16 12:36:35;;;;;;;4.35;1.27;;;21.20;99.90;;;;;;5056477;28;20183;-27
2022/07/16 12:39:08;;;;;;;4.25;1.55;;;21.10;99.90;;;;;;5068805;28;20064;-27
2022/07/16 12:41:41;;;;;;;5.72;1.20;;;21.20;99.90;;;;;;5058255;28;20052;-27
2022/07/16 12:44:12;;;;;;;3.38;0.85;;;21.50;99.90;;;;;;5054278;28;20053;-27
2022/07/16 12:46:47;;;;;;;4.85;0.88;;;21.60;99.90;;;;;;5054951;28;20368;-27
2022/07/16 12:49:20;;;;;;;8.05;0.93;;;21.20;99.90;;;;;;5053764;28;20045;-28
2022/07/16 12:51:48;;;;;;;7.35;0.73;;;20.80;99.90;;;;;;5054712;28;20131;-27
2022/07/16 12:54:15;;;;;;;2.25;0.63;;;20.90;99.90;;;;;;5054041;28;20049;-28
2022/07/16 12:59:29;;;;;;;3.55;0.80;;;21.00;99.90;;;;;;5054287;28;20211;-29